sensor_id;sensor_type;location;lat;lon;timestamp;temperature;humidity
2300;DHT22;1158;48.750;9.078;2023-06-10T00:00:07;12.40;99.90
2300;DHT22;1158;48.750;9.078;2023-06-10T00:02:34;12.30;99.90
2300;DHT22;1158;48.750;9.078;2023-06-10T00:05:01;12.30;99.90
2300;DHT22;1158;48.750;9.078;2023-06-10T00:07:27;12.30;99.90
2300;DHT22;1158;48.750;9.078;2023-06-10T00:09:54;12.20;99.90
2300;DHT22;1158;48.750;9.078;2023-06-10T00:12:22;12.20;99.90
2300;DHT22;1158;48.750;9.078;2023-06-10T00:14:50;12.20;99.90
2300;DHT22;1158;48.750;9.078;2023-06-10T00:17:19;12.10;99.90
2300;DHT22;1158;48.750;9.078;2023-06-10T00:19:45;12.00;99.90
2300;DHT22;1158;48.750;9.078;2023-06-10T00:22:12;12.00;99.90
2300;DHT22;1158;48.750;9.078;2023-06-10T00:24:39;12.00;99.90
2300;DHT22;1158;48.750;9.078;2023-06-10T00:27:07;11.90;99.90
2300;DHT22;1158;48.750;9.078;2023-06-10T00:29:34;11.90;99.90
2300;DHT22;1158;48.750;9.078;2023-06-10T00:32:02;11.80;99.90
2300;DHT22;1158;48.750;9.078;2023-06-10T00:34:29;11.80;99.90
2300;DHT22;1158;48.750;9.078;2023-06-10T00:36:56;11.80;99.90
2300;DHT22;1158;48.750;9.078;2023-06-10T00:39:23;11.90;99.90
2300;DHT22;1158;48.750;9.078;2023-06-10T00:41:50;11.90;99.90
2300;DHT22;1158;48.750;9.078;2023-06-10T00:44:17;11.80;99.90
2300;DHT22;1158;48.750;9.078;2023-06-10T00:46:43;11.80;99.90
2300;DHT22;1158;48.750;9.078;2023-06-10T00:49:12;11.80;99.90
2300;DHT22;1158;48.750;9.078;2023-06-10T00:51:39;11.80;99.90
2300;DHT22;1158;48.750;9.078;2023-06-10T00:54:07;11.80;99.90
2300;DHT22;1158;48.750;9.078;2023-06-10T00:56:34;11.70;99.90
2300;DHT22;1158;48.750;9.078;2023-06-10T00:59:01;11.60;99.90
2300;DHT22;1158;48.750;9.078;2023-06-10T01:01:28;11.50;99.90
2300;DHT22;1158;48.750;9.078;2023-06-10T01:03:55;11.50;99.90
2300;DHT22;1158;48.750;9.078;2023-06-10T01:06:30;11.40;99.90
2300;DHT22;1158;48.750;9.078;2023-06-10T01:09:09;11.40;99.90
2300;DHT22;1158;48.750;9.078;2023-06-10T01:11:45;11.40;99.90
2300;DHT22;1158;48.750;9.078;2023-06-10T01:14:14;11.40;99.90
2300;DHT22;1158;48.750;9.078;2023-06-10T01:16:41;11.40;99.90
2300;DHT22;1158;48.750;9.078;2023-06-10T01:19:08;11.30;99.90
2300;DHT22;1158;48.750;9.078;2023-06-10T01:21:37;11.30;99.90
2300;DHT22;1158;48.750;9.078;2023-06-10T01:24:05;11.30;99.90
2300;DHT22;1158;48.750;9.078;2023-06-10T01:26:34;11.30;99.90
2300;DHT22;1158;48.750;9.078;2023-06-10T01:29:08;11.20;99.90
2300;DHT22;1158;48.750;9.078;2023-06-10T01:31:41;11.10;99.90
2300;DHT22;1158;48.750;9.078;2023-06-10T01:34:11;11.10;99.90
2300;DHT22;1158;48.750;9.078;2023-06-10T01:36:40;11.00;99.90
2300;DHT22;1158;48.750;9.078;2023-06-10T01:39:08;11.00;99.90
2300;DHT22;1158;48.750;9.078;2023-06-10T01:41:35;11.00;99.90
2300;DHT22;1158;48.750;9.078;2023-06-10T01:44:02;11.00;99.90
2300;DHT22;1158;48.750;9.078;2023-06-10T01:46:29;11.00;99.90
2300;DHT22;1158;48.750;9.078;2023-06-10T01:48:56;10.90;99.90
2300;DHT22;1158;48.750;9.078;2023-06-10T01:51:23;10.90;99.90
2300;DHT22;1158;48.750;9.078;2023-06-10T01:53:51;10.90;99.90
2300;DHT22;1158;48.750;9.078;2023-06-10T01:56:17;10.90;99.90
2300;DHT22;1158;48.750;9.078;2023-06-10T01:58:45;10.90;99.90
2300;DHT22;1158;48.750;9.078;2023-06-10T02:01:12;10.90;99.90
2300;DHT22;1158;48.750;9.078;2023-06-10T02:03:39;10.90;99.90
2300;DHT22;1158;48.750;9.078;2023-06-10T02:06:05;10.80;99.90
2300;DHT22;1158;48.750;9.078;2023-06-10T02:08:32;10.80;99.90
2300;DHT22;1158;48.750;9.078;2023-06-10T02:11:00;10.80;99.90
2300;DHT22;1158;48.750;9.078;2023-06-10T02:13:27;10.80;99.90
2300;DHT22;1158;48.750;9.078;2023-06-10T02:15:54;10.80;99.90
2300;DHT22;1158;48.750;9.078;2023-06-10T02:18:20;10.70;99.90
2300;DHT22;1158;48.750;9.078;2023-06-10T02:20:47;10.70;99.90
2300;DHT22;1158;48.750;9.078;2023-06-10T02:23:14;10.70;99.90
2300;DHT22;1158;48.750;9.078;2023-06-10T02:25:41;10.60;99.90
2300;DHT22;1158;48.750;9.078;2023-06-10T02:28:09;10.60;99.90
2300;DHT22;1158;48.750;9.078;2023-06-10T02:30:39;10.60;99.90
2300;DHT22;1158;48.750;9.078;2023-06-10T02:33:05;10.60;99.90
2300;DHT22;1158;48.750;9.078;2023-06-10T02:35:35;10.50;99.90
2300;DHT22;1158;48.750;9.078;2023-06-10T02:38:02;10.50;99.90
2300;DHT22;1158;48.750;9.078;2023-06-10T02:40:29;10.60;99.90
2300;DHT22;1158;48.750;9.078;2023-06-10T02:42:56;10.60;99.90
2300;DHT22;1158;48.750;9.078;2023-06-10T02:45:24;10.50;99.90
2300;DHT22;1158;48.750;9.078;2023-06-10T02:47:51;10.40;99.90
2300;DHT22;1158;48.750;9.078;2023-06-10T02:50:18;10.40;99.90
2300;DHT22;1158;48.750;9.078;2023-06-10T02:52:45;10.40;99.90
2300;DHT22;1158;48.750;9.078;2023-06-10T02:55:11;10.40;99.90
2300;DHT22;1158;48.750;9.078;2023-06-10T02:57:38;10.30;99.90
2300;DHT22;1158;48.750;9.078;2023-06-10T03:00:07;10.40;99.90
2300;DHT22;1158;48.750;9.078;2023-06-10T03:02:38;10.40;99.90
2300;DHT22;1158;48.750;9.078;2023-06-10T03:05:06;10.30;99.90
2300;DHT22;1158;48.750;9.078;2023-06-10T03:07:35;10.30;99.90
2300;DHT22;1158;48.750;9.078;2023-06-10T03:10:03;10.20;99.90
2300;DHT22;1158;48.750;9.078;2023-06-10T03:12:30;10.20;99.90
2300;DHT22;1158;48.750;9.078;2023-06-10T03:14:57;10.10;99.90
2300;DHT22;1158;48.750;9.078;2023-06-10T03:17:23;10.20;99.90
2300;DHT22;1158;48.750;9.078;2023-06-10T03:19:52;10.20;99.90
2300;DHT22;1158;48.750;9.078;2023-06-10T03:22:19;10.20;99.90
2300;DHT22;1158;48.750;9.078;2023-06-10T03:24:45;10.10;99.90
2300;DHT22;1158;48.750;9.078;2023-06-10T03:27:15;10.20;99.90
2300;DHT22;1158;48.750;9.078;2023-06-10T03:29:42;10.10;99.90
2300;DHT22;1158;48.750;9.078;2023-06-10T03:32:09;10.20;99.90
2300;DHT22;1158;48.750;9.078;2023-06-10T03:34:35;10.20;99.90
2300;DHT22;1158;48.750;9.078;2023-06-10T03:37:04;10.10;99.90
2300;DHT22;1158;48.750;9.078;2023-06-10T03:39:31;10.20;99.90
2300;DHT22;1158;48.750;9.078;2023-06-10T03:41:58;10.20;99.90
2300;DHT22;1158;48.750;9.078;2023-06-10T03:44:24;10.20;99.90
2300;DHT22;1158;48.750;9.078;2023-06-10T03:46:53;10.30;99.90
2300;DHT22;1158;48.750;9.078;2023-06-10T03:49:19;10.30;99.90
2300;DHT22;1158;48.750;9.078;2023-06-10T03:51:47;10.30;99.90
2300;DHT22;1158;48.750;9.078;2023-06-10T03:54:15;10.30;99.90
2300;DHT22;1158;48.750;9.078;2023-06-10T03:56:41;10.30;99.90
2300;DHT22;1158;48.750;9.078;2023-06-10T03:59:08;10.30;99.90
2300;DHT22;1158;48.750;9.078;2023-06-10T04:01:35;10.30;99.90
2300;DHT22;1158;48.750;9.078;2023-06-10T04:04:03;10.40;99.90
2300;DHT22;1158;48.750;9.078;2023-06-10T04:06:29;10.40;99.90
2300;DHT22;1158;48.750;9.078;2023-06-10T04:08:57;10.50;99.90
2300;DHT22;1158;48.750;9.078;2023-06-10T04:11:25;10.50;99.90
2300;DHT22;1158;48.750;9.078;2023-06-10T04:13:52;10.50;99.90
2300;DHT22;1158;48.750;9.078;2023-06-10T04:16:19;10.60;99.90
2300;DHT22;1158;48.750;9.078;2023-06-10T04:18:46;10.70;99.90
2300;DHT22;1158;48.750;9.078;2023-06-10T04:21:13;10.80;99.90
2300;DHT22;1158;48.750;9.078;2023-06-10T04:23:40;10.80;99.90
2300;DHT22;1158;48.750;9.078;2023-06-10T04:26:07;10.90;99.90
2300;DHT22;1158;48.750;9.078;2023-06-10T04:28:35;11.00;99.90
2300;DHT22;1158;48.750;9.078;2023-06-10T04:31:02;11.10;99.90
2300;DHT22;1158;48.750;9.078;2023-06-10T04:33:29;11.20;99.90
2300;DHT22;1158;48.750;9.078;2023-06-10T04:35:57;11.30;99.90
2300;DHT22;1158;48.750;9.078;2023-06-10T04:38:24;11.40;99.90
2300;DHT22;1158;48.750;9.078;2023-06-10T04:40:50;11.50;99.90
2300;DHT22;1158;48.750;9.078;2023-06-10T04:43:17;11.60;99.90
2300;DHT22;1158;48.750;9.078;2023-06-10T04:45:45;11.70;99.90
2300;DHT22;1158;48.750;9.078;2023-06-10T04:48:12;11.80;99.90
2300;DHT22;1158;48.750;9.078;2023-06-10T04:50:39;12.00;99.90
2300;DHT22;1158;48.750;9.078;2023-06-10T04:53:06;12.10;99.90
2300;DHT22;1158;48.750;9.078;2023-06-10T04:55:33;12.20;99.90
2300;DHT22;1158;48.750;9.078;2023-06-10T04:58:00;12.40;99.90
2300;DHT22;1158;48.750;9.078;2023-06-10T05:00:27;12.50;99.90
2300;DHT22;1158;48.750;9.078;2023-06-10T05:02:55;12.60;99.90
2300;DHT22;1158;48.750;9.078;2023-06-10T05:05:22;12.80;99.90
2300;DHT22;1158;48.750;9.078;2023-06-10T05:07:49;12.90;99.90
2300;DHT22;1158;48.750;9.078;2023-06-10T05:10:15;13.20;99.90
2300;DHT22;1158;48.750;9.078;2023-06-10T05:12:42;13.30;99.90
2300;DHT22;1158;48.750;9.078;2023-06-10T05:15:10;13.60;99.90
2300;DHT22;1158;48.750;9.078;2023-06-10T05:17:37;13.80;99.90
2300;DHT22;1158;48.750;9.078;2023-06-10T05:20:06;14.00;99.90
2300;DHT22;1158;48.750;9.078;2023-06-10T05:22:33;14.20;99.90
2300;DHT22;1158;48.750;9.078;2023-06-10T05:25:01;14.40;99.90
2300;DHT22;1158;48.750;9.078;2023-06-10T05:27:28;14.60;99.90
2300;DHT22;1158;48.750;9.078;2023-06-10T05:29:55;14.80;99.90
2300;DHT22;1158;48.750;9.078;2023-06-10T05:32:22;15.10;99.90
2300;DHT22;1158;48.750;9.078;2023-06-10T05:34:48;15.30;99.90
2300;DHT22;1158;48.750;9.078;2023-06-10T05:37:16;15.60;99.90
2300;DHT22;1158;48.750;9.078;2023-06-10T05:39:43;15.90;99.90
2300;DHT22;1158;48.750;9.078;2023-06-10T05:42:10;16.10;99.90
2300;DHT22;1158;48.750;9.078;2023-06-10T05:44:37;16.40;99.90
2300;DHT22;1158;48.750;9.078;2023-06-10T05:47:04;16.60;99.90
2300;DHT22;1158;48.750;9.078;2023-06-10T05:49:31;16.90;99.90
2300;DHT22;1158;48.750;9.078;2023-06-10T05:51:57;17.20;99.90
2300;DHT22;1158;48.750;9.078;2023-06-10T05:54:26;17.40;99.90
2300;DHT22;1158;48.750;9.078;2023-06-10T05:56:52;17.80;99.90
2300;DHT22;1158;48.750;9.078;2023-06-10T05:59:19;18.10;99.90
2300;DHT22;1158;48.750;9.078;2023-06-10T06:01:48;18.40;99.90
2300;DHT22;1158;48.750;9.078;2023-06-10T06:04:15;18.70;99.90
2300;DHT22;1158;48.750;9.078;2023-06-10T06:06:42;19.40;99.90
2300;DHT22;1158;48.750;9.078;2023-06-10T06:09:08;20.80;99.90
2300;DHT22;1158;48.750;9.078;2023-06-10T06:11:37;22.20;99.90
2300;DHT22;1158;48.750;9.078;2023-06-10T06:14:03;23.20;99.90
2300;DHT22;1158;48.750;9.078;2023-06-10T06:16:30;24.00;99.70
2300;DHT22;1158;48.750;9.078;2023-06-10T06:18:57;24.50;98.40
2300;DHT22;1158;48.750;9.078;2023-06-10T06:21:23;25.10;96.60
2300;DHT22;1158;48.750;9.078;2023-06-10T06:23:50;25.60;94.90
2300;DHT22;1158;48.750;9.078;2023-06-10T06:26:17;25.50;94.50
2300;DHT22;1158;48.750;9.078;2023-06-10T06:28:45;26.10;93.90
2300;DHT22;1158;48.750;9.078;2023-06-10T06:31:12;26.50;92.80
2300;DHT22;1158;48.750;9.078;2023-06-10T06:33:38;26.80;92.20
2300;DHT22;1158;48.750;9.078;2023-06-10T06:36:05;27.10;92.10
2300;DHT22;1158;48.750;9.078;2023-06-10T06:38:32;26.90;91.00
2300;DHT22;1158;48.750;9.078;2023-06-10T06:40:59;27.10;91.10
2300;DHT22;1158;48.750;9.078;2023-06-10T06:43:28;27.60;90.40
2300;DHT22;1158;48.750;9.078;2023-06-10T06:45:57;27.50;89.00
2300;DHT22;1158;48.750;9.078;2023-06-10T06:48:24;27.00;90.20
2300;DHT22;1158;48.750;9.078;2023-06-10T06:50:51;26.30;90.30
2300;DHT22;1158;48.750;9.078;2023-06-10T06:53:18;25.80;91.20
2300;DHT22;1158;48.750;9.078;2023-06-10T06:55:44;25.00;91.80
2300;DHT22;1158;48.750;9.078;2023-06-10T06:58:11;24.80;92.90
2300;DHT22;1158;48.750;9.078;2023-06-10T07:00:38;25.30;92.50
2300;DHT22;1158;48.750;9.078;2023-06-10T07:03:06;26.30;91.40
2300;DHT22;1158;48.750;9.078;2023-06-10T07:05:33;27.20;90.30
2300;DHT22;1158;48.750;9.078;2023-06-10T07:08:00;28.10;88.10
2300;DHT22;1158;48.750;9.078;2023-06-10T07:10:28;27.90;86.90
2300;DHT22;1158;48.750;9.078;2023-06-10T07:12:55;27.90;87.70
2300;DHT22;1158;48.750;9.078;2023-06-10T07:15:22;28.10;86.90
2300;DHT22;1158;48.750;9.078;2023-06-10T07:17:48;28.60;85.90
2300;DHT22;1158;48.750;9.078;2023-06-10T07:20:17;28.90;85.40
2300;DHT22;1158;48.750;9.078;2023-06-10T07:22:44;28.60;84.00
2300;DHT22;1158;48.750;9.078;2023-06-10T07:25:10;28.20;85.10
2300;DHT22;1158;48.750;9.078;2023-06-10T07:27:37;28.30;85.30
2300;DHT22;1158;48.750;9.078;2023-06-10T07:30:05;28.00;85.10
2300;DHT22;1158;48.750;9.078;2023-06-10T07:32:33;27.00;86.30
2300;DHT22;1158;48.750;9.078;2023-06-10T07:35:00;27.50;85.60
2300;DHT22;1158;48.750;9.078;2023-06-10T07:37:28;27.60;85.70
2300;DHT22;1158;48.750;9.078;2023-06-10T07:39:56;28.00;86.20
2300;DHT22;1158;48.750;9.078;2023-06-10T07:42:23;27.50;85.00
2300;DHT22;1158;48.750;9.078;2023-06-10T07:44:50;27.20;86.10
2300;DHT22;1158;48.750;9.078;2023-06-10T07:47:16;28.70;84.60
2300;DHT22;1158;48.750;9.078;2023-06-10T07:49:43;29.00;82.70
2300;DHT22;1158;48.750;9.078;2023-06-10T07:52:10;29.70;81.50
2300;DHT22;1158;48.750;9.078;2023-06-10T07:54:38;29.10;81.70
2300;DHT22;1158;48.750;9.078;2023-06-10T07:57:05;28.90;82.40
2300;DHT22;1158;48.750;9.078;2023-06-10T07:59:33;28.70;82.30
2300;DHT22;1158;48.750;9.078;2023-06-10T08:02:00;28.00;83.80
2300;DHT22;1158;48.750;9.078;2023-06-10T08:04:26;27.50;84.50
2300;DHT22;1158;48.750;9.078;2023-06-10T08:06:53;27.40;85.10
2300;DHT22;1158;48.750;9.078;2023-06-10T08:09:20;28.10;86.00
2300;DHT22;1158;48.750;9.078;2023-06-10T08:11:50;28.90;84.40
2300;DHT22;1158;48.750;9.078;2023-06-10T08:14:17;28.80;82.80
2300;DHT22;1158;48.750;9.078;2023-06-10T08:16:44;28.40;83.30
2300;DHT22;1158;48.750;9.078;2023-06-10T08:19:11;27.80;85.70
2300;DHT22;1158;48.750;9.078;2023-06-10T08:21:37;28.60;83.60
2300;DHT22;1158;48.750;9.078;2023-06-10T08:24:05;29.10;82.20
2300;DHT22;1158;48.750;9.078;2023-06-10T08:26:32;29.00;82.50
2300;DHT22;1158;48.750;9.078;2023-06-10T08:29:00;29.10;82.50
2300;DHT22;1158;48.750;9.078;2023-06-10T08:31:27;29.20;82.50
2300;DHT22;1158;48.750;9.078;2023-06-10T08:33:54;29.40;82.20
2300;DHT22;1158;48.750;9.078;2023-06-10T08:36:21;29.50;81.30
2300;DHT22;1158;48.750;9.078;2023-06-10T08:38:47;29.90;79.30
2300;DHT22;1158;48.750;9.078;2023-06-10T08:41:17;30.40;79.90
2300;DHT22;1158;48.750;9.078;2023-06-10T08:43:51;30.90;80.20
2300;DHT22;1158;48.750;9.078;2023-06-10T08:46:21;30.60;79.10
2300;DHT22;1158;48.750;9.078;2023-06-10T08:48:49;30.30;79.70
2300;DHT22;1158;48.750;9.078;2023-06-10T08:51:19;31.10;78.80
2300;DHT22;1158;48.750;9.078;2023-06-10T08:53:56;31.90;76.70
2300;DHT22;1158;48.750;9.078;2023-06-10T08:56:28;30.60;77.30
2300;DHT22;1158;48.750;9.078;2023-06-10T08:58:56;30.10;78.60
2300;DHT22;1158;48.750;9.078;2023-06-10T09:01:26;30.70;77.20
2300;DHT22;1158;48.750;9.078;2023-06-10T09:03:53;32.10;76.00
2300;DHT22;1158;48.750;9.078;2023-06-10T09:06:21;32.20;75.50
2300;DHT22;1158;48.750;9.078;2023-06-10T09:08:48;32.50;74.50
2300;DHT22;1158;48.750;9.078;2023-06-10T09:11:15;31.50;74.40
2300;DHT22;1158;48.750;9.078;2023-06-10T09:13:42;31.70;74.90
2300;DHT22;1158;48.750;9.078;2023-06-10T09:16:09;31.60;73.90
2300;DHT22;1158;48.750;9.078;2023-06-10T09:18:38;31.90;73.20
2300;DHT22;1158;48.750;9.078;2023-06-10T09:21:05;31.20;75.00
2300;DHT22;1158;48.750;9.078;2023-06-10T09:23:32;31.40;73.50
2300;DHT22;1158;48.750;9.078;2023-06-10T09:25:59;29.80;77.20
2300;DHT22;1158;48.750;9.078;2023-06-10T09:28:26;29.60;77.60
2300;DHT22;1158;48.750;9.078;2023-06-10T09:31:02;29.90;77.20
2300;DHT22;1158;48.750;9.078;2023-06-10T09:33:30;31.40;75.20
2300;DHT22;1158;48.750;9.078;2023-06-10T09:35:59;31.30;73.90
2300;DHT22;1158;48.750;9.078;2023-06-10T09:38:30;31.20;74.10
2300;DHT22;1158;48.750;9.078;2023-06-10T09:40:57;31.20;73.60
2300;DHT22;1158;48.750;9.078;2023-06-10T09:43:38;30.10;75.30
2300;DHT22;1158;48.750;9.078;2023-06-10T09:46:05;30.30;75.30
2300;DHT22;1158;48.750;9.078;2023-06-10T09:48:34;30.20;75.30
2300;DHT22;1158;48.750;9.078;2023-06-10T09:51:08;31.20;75.20
2300;DHT22;1158;48.750;9.078;2023-06-10T09:53:35;32.00;73.40
2300;DHT22;1158;48.750;9.078;2023-06-10T09:56:02;32.20;73.10
2300;DHT22;1158;48.750;9.078;2023-06-10T09:58:36;31.80;73.00
2300;DHT22;1158;48.750;9.078;2023-06-10T10:01:06;32.40;73.00
2300;DHT22;1158;48.750;9.078;2023-06-10T10:03:33;33.40;72.00
2300;DHT22;1158;48.750;9.078;2023-06-10T10:06:04;32.20;71.30
2300;DHT22;1158;48.750;9.078;2023-06-10T10:08:31;31.40;73.20
2300;DHT22;1158;48.750;9.078;2023-06-10T10:10:58;30.10;73.60
2300;DHT22;1158;48.750;9.078;2023-06-10T10:13:26;29.90;75.20
2300;DHT22;1158;48.750;9.078;2023-06-10T10:15:53;30.10;74.20
2300;DHT22;1158;48.750;9.078;2023-06-10T10:18:23;31.10;74.30
2300;DHT22;1158;48.750;9.078;2023-06-10T10:20:54;31.60;73.80
2300;DHT22;1158;48.750;9.078;2023-06-10T10:23:26;30.40;73.30
2300;DHT22;1158;48.750;9.078;2023-06-10T10:25:57;31.10;73.70
2300;DHT22;1158;48.750;9.078;2023-06-10T10:28:36;32.00;71.80
2300;DHT22;1158;48.750;9.078;2023-06-10T10:31:08;31.80;71.90
2300;DHT22;1158;48.750;9.078;2023-06-10T10:33:42;31.80;71.60
2300;DHT22;1158;48.750;9.078;2023-06-10T10:36:12;31.40;71.80
2300;DHT22;1158;48.750;9.078;2023-06-10T10:38:41;30.80;73.80
2300;DHT22;1158;48.750;9.078;2023-06-10T10:41:09;30.50;74.20
2300;DHT22;1158;48.750;9.078;2023-06-10T10:43:36;31.50;73.60
2300;DHT22;1158;48.750;9.078;2023-06-10T10:46:12;32.00;70.50
2300;DHT22;1158;48.750;9.078;2023-06-10T10:48:39;31.50;71.80
2300;DHT22;1158;48.750;9.078;2023-06-10T10:51:06;31.80;69.60
2300;DHT22;1158;48.750;9.078;2023-06-10T10:53:33;31.40;71.00
2300;DHT22;1158;48.750;9.078;2023-06-10T10:56:04;32.00;71.40
2300;DHT22;1158;48.750;9.078;2023-06-10T10:58:32;32.30;69.00
2300;DHT22;1158;48.750;9.078;2023-06-10T11:01:00;31.70;70.30
2300;DHT22;1158;48.750;9.078;2023-06-10T11:03:42;31.90;69.80
2300;DHT22;1158;48.750;9.078;2023-06-10T11:06:13;32.10;69.90
2300;DHT22;1158;48.750;9.078;2023-06-10T11:08:47;32.20;70.60
2300;DHT22;1158;48.750;9.078;2023-06-10T11:11:21;32.70;69.80
2300;DHT22;1158;48.750;9.078;2023-06-10T11:14:07;34.00;69.60
2300;DHT22;1158;48.750;9.078;2023-06-10T11:16:44;33.80;69.20
2300;DHT22;1158;48.750;9.078;2023-06-10T11:19:34;34.70;67.90
2300;DHT22;1158;48.750;9.078;2023-06-10T11:22:02;34.00;69.10
2300;DHT22;1158;48.750;9.078;2023-06-10T11:24:29;34.00;69.00
2300;DHT22;1158;48.750;9.078;2023-06-10T11:27:14;34.20;68.90
2300;DHT22;1158;48.750;9.078;2023-06-10T11:29:55;34.70;67.30
2300;DHT22;1158;48.750;9.078;2023-06-10T11:32:22;34.60;67.70
2300;DHT22;1158;48.750;9.078;2023-06-10T11:34:52;35.00;65.70
2300;DHT22;1158;48.750;9.078;2023-06-10T11:37:19;33.70;67.80
2300;DHT22;1158;48.750;9.078;2023-06-10T11:39:46;33.00;68.50
2300;DHT22;1158;48.750;9.078;2023-06-10T11:42:16;33.10;70.10
2300;DHT22;1158;48.750;9.078;2023-06-10T11:44:48;33.60;66.50
2300;DHT22;1158;48.750;9.078;2023-06-10T11:47:15;33.40;68.50
2300;DHT22;1158;48.750;9.078;2023-06-10T11:49:42;34.50;66.70
2300;DHT22;1158;48.750;9.078;2023-06-10T11:52:09;33.90;65.90
2300;DHT22;1158;48.750;9.078;2023-06-10T11:54:36;34.20;64.80
2300;DHT22;1158;48.750;9.078;2023-06-10T11:57:03;35.10;63.80
2300;DHT22;1158;48.750;9.078;2023-06-10T11:59:32;34.00;65.20
2300;DHT22;1158;48.750;9.078;2023-06-10T12:01:58;33.30;65.80
2300;DHT22;1158;48.750;9.078;2023-06-10T12:04:25;34.40;64.80
2300;DHT22;1158;48.750;9.078;2023-06-10T12:06:53;35.70;63.50
2300;DHT22;1158;48.750;9.078;2023-06-10T12:09:21;34.70;63.20
2300;DHT22;1158;48.750;9.078;2023-06-10T12:11:49;32.80;66.70
2300;DHT22;1158;48.750;9.078;2023-06-10T12:16:59;32.10;69.90
2300;DHT22;1158;48.750;9.078;2023-06-10T12:19:26;32.10;69.70
2300;DHT22;1158;48.750;9.078;2023-06-10T12:21:53;34.10;66.30
2300;DHT22;1158;48.750;9.078;2023-06-10T12:24:20;34.50;66.70
2300;DHT22;1158;48.750;9.078;2023-06-10T12:26:46;34.90;63.30
2300;DHT22;1158;48.750;9.078;2023-06-10T12:29:18;33.90;63.90
2300;DHT22;1158;48.750;9.078;2023-06-10T12:31:56;32.50;66.30
2300;DHT22;1158;48.750;9.078;2023-06-10T12:34:33;31.50;68.20
2300;DHT22;1158;48.750;9.078;2023-06-10T12:37:01;30.30;70.30
2300;DHT22;1158;48.750;9.078;2023-06-10T12:39:29;30.50;71.50
2300;DHT22;1158;48.750;9.078;2023-06-10T12:41:56;30.30;71.60
2300;DHT22;1158;48.750;9.078;2023-06-10T12:44:33;30.30;70.30
2300;DHT22;1158;48.750;9.078;2023-06-10T12:47:01;31.20;68.30
2300;DHT22;1158;48.750;9.078;2023-06-10T12:49:28;31.60;69.40
2300;DHT22;1158;48.750;9.078;2023-06-10T12:51:56;32.90;66.00
2300;DHT22;1158;48.750;9.078;2023-06-10T12:54:24;34.20;64.80
2300;DHT22;1158;48.750;9.078;2023-06-10T12:56:51;33.40;63.80
2300;DHT22;1158;48.750;9.078;2023-06-10T12:59:18;31.70;65.80
2300;DHT22;1158;48.750;9.078;2023-06-10T13:01:50;31.20;67.80
2300;DHT22;1158;48.750;9.078;2023-06-10T13:04:17;30.20;69.20
2300;DHT22;1158;48.750;9.078;2023-06-10T13:06:44;29.50;70.30
2300;DHT22;1158;48.750;9.078;2023-06-10T13:09:13;29.00;72.00
2300;DHT22;1158;48.750;9.078;2023-06-10T13:11:41;28.90;72.30
2300;DHT22;1158;48.750;9.078;2023-06-10T13:14:08;28.80;73.40
2300;DHT22;1158;48.750;9.078;2023-06-10T13:16:36;29.80;72.80
2300;DHT22;1158;48.750;9.078;2023-06-10T13:19:04;31.50;70.30
2300;DHT22;1158;48.750;9.078;2023-06-10T13:21:32;32.10;70.20
2300;DHT22;1158;48.750;9.078;2023-06-10T13:23:59;33.40;66.30
2300;DHT22;1158;48.750;9.078;2023-06-10T13:26:27;34.00;64.50
2300;DHT22;1158;48.750;9.078;2023-06-10T13:28:54;34.30;64.60
2300;DHT22;1158;48.750;9.078;2023-06-10T13:31:21;34.00;63.70
2300;DHT22;1158;48.750;9.078;2023-06-10T13:33:47;33.10;64.60
2300;DHT22;1158;48.750;9.078;2023-06-10T13:36:14;32.00;66.40
2300;DHT22;1158;48.750;9.078;2023-06-10T13:38:41;31.70;67.30
2300;DHT22;1158;48.750;9.078;2023-06-10T13:41:08;32.00;67.40
2300;DHT22;1158;48.750;9.078;2023-06-10T13:43:36;33.00;67.60
2300;DHT22;1158;48.750;9.078;2023-06-10T13:46:03;34.30;64.80
2300;DHT22;1158;48.750;9.078;2023-06-10T13:48:30;34.40;63.00
2300;DHT22;1158;48.750;9.078;2023-06-10T13:50:57;34.00;62.40
2300;DHT22;1158;48.750;9.078;2023-06-10T13:53:25;34.90;62.00
2300;DHT22;1158;48.750;9.078;2023-06-10T13:55:51;35.60;60.90
2300;DHT22;1158;48.750;9.078;2023-06-10T13:58:18;36.50;59.60
2300;DHT22;1158;48.750;9.078;2023-06-10T14:00:46;36.20;59.90
2300;DHT22;1158;48.750;9.078;2023-06-10T14:03:13;35.90;61.20
2300;DHT22;1158;48.750;9.078;2023-06-10T14:05:40;36.40;61.20
2300;DHT22;1158;48.750;9.078;2023-06-10T14:08:07;36.60;59.40
2300;DHT22;1158;48.750;9.078;2023-06-10T14:10:34;36.40;58.90
2300;DHT22;1158;48.750;9.078;2023-06-10T14:13:00;36.10;59.20
2300;DHT22;1158;48.750;9.078;2023-06-10T14:15:27;35.60;59.90
2300;DHT22;1158;48.750;9.078;2023-06-10T14:17:55;33.80;61.30
2300;DHT22;1158;48.750;9.078;2023-06-10T14:20:22;33.20;63.50
2300;DHT22;1158;48.750;9.078;2023-06-10T14:22:51;33.60;62.70
2300;DHT22;1158;48.750;9.078;2023-06-10T14:25:17;34.30;62.40
2300;DHT22;1158;48.750;9.078;2023-06-10T14:27:44;34.10;61.70
2300;DHT22;1158;48.750;9.078;2023-06-10T14:30:13;34.40;61.90
2300;DHT22;1158;48.750;9.078;2023-06-10T14:32:39;35.40;61.20
2300;DHT22;1158;48.750;9.078;2023-06-10T14:35:08;36.10;59.30
2300;DHT22;1158;48.750;9.078;2023-06-10T14:37:35;35.10;59.50
2300;DHT22;1158;48.750;9.078;2023-06-10T14:40:03;34.60;60.70
2300;DHT22;1158;48.750;9.078;2023-06-10T14:42:30;34.20;60.80
2300;DHT22;1158;48.750;9.078;2023-06-10T14:44:57;35.50;59.40
2300;DHT22;1158;48.750;9.078;2023-06-10T14:47:24;36.30;59.00
2300;DHT22;1158;48.750;9.078;2023-06-10T14:49:51;36.20;58.20
2300;DHT22;1158;48.750;9.078;2023-06-10T14:52:19;36.60;59.00
2300;DHT22;1158;48.750;9.078;2023-06-10T14:54:46;37.10;58.30
2300;DHT22;1158;48.750;9.078;2023-06-10T14:57:13;36.50;59.70
2300;DHT22;1158;48.750;9.078;2023-06-10T14:59:40;35.10;60.20
2300;DHT22;1158;48.750;9.078;2023-06-10T15:02:07;34.50;61.00
2300;DHT22;1158;48.750;9.078;2023-06-10T15:04:33;34.50;62.40
2300;DHT22;1158;48.750;9.078;2023-06-10T15:07:00;35.10;61.70
2300;DHT22;1158;48.750;9.078;2023-06-10T15:09:28;35.60;60.20
2300;DHT22;1158;48.750;9.078;2023-06-10T15:11:55;35.60;59.80
2300;DHT22;1158;48.750;9.078;2023-06-10T15:14:22;35.40;60.70
2300;DHT22;1158;48.750;9.078;2023-06-10T15:16:49;34.50;61.00
2300;DHT22;1158;48.750;9.078;2023-06-10T15:19:15;34.00;62.10
2300;DHT22;1158;48.750;9.078;2023-06-10T15:21:42;34.30;62.30
2300;DHT22;1158;48.750;9.078;2023-06-10T15:24:09;35.10;60.90
2300;DHT22;1158;48.750;9.078;2023-06-10T15:26:37;35.60;61.00
2300;DHT22;1158;48.750;9.078;2023-06-10T15:29:04;35.80;58.50
2300;DHT22;1158;48.750;9.078;2023-06-10T15:31:31;35.20;60.60
2300;DHT22;1158;48.750;9.078;2023-06-10T15:33:59;34.90;60.40
2300;DHT22;1158;48.750;9.078;2023-06-10T15:36:26;33.60;62.20
2300;DHT22;1158;48.750;9.078;2023-06-10T15:38:53;34.30;62.20
2300;DHT22;1158;48.750;9.078;2023-06-10T15:41:20;34.20;62.10
2300;DHT22;1158;48.750;9.078;2023-06-10T15:43:48;34.50;61.80
2300;DHT22;1158;48.750;9.078;2023-06-10T15:46:15;34.20;61.50
2300;DHT22;1158;48.750;9.078;2023-06-10T15:48:42;33.60;62.80
2300;DHT22;1158;48.750;9.078;2023-06-10T15:51:09;32.60;63.90
2300;DHT22;1158;48.750;9.078;2023-06-10T15:53:36;32.40;64.70
2300;DHT22;1158;48.750;9.078;2023-06-10T15:56:03;32.70;64.70
2300;DHT22;1158;48.750;9.078;2023-06-10T15:58:30;33.00;62.70
2300;DHT22;1158;48.750;9.078;2023-06-10T16:00:58;33.20;62.80
2300;DHT22;1158;48.750;9.078;2023-06-10T16:03:25;33.70;62.10
2300;DHT22;1158;48.750;9.078;2023-06-10T16:05:52;33.70;61.30
2300;DHT22;1158;48.750;9.078;2023-06-10T16:08:19;33.80;60.10